createdAt,value
2023-03-01T00:11:08.867Z,78.59
2023-03-01T00:27:16.782Z,79.09
2023-03-01T00:46:44.059Z,79.04
2023-03-01T01:02:36.184Z,79.26
2023-03-01T01:06:23.512Z,80.86
2023-03-01T02:38:43.371Z,76.83
2023-03-01T02:43:25.179Z,76.08
2023-03-01T02:47:15.165Z,78.01
2023-03-01T03:04:04.179Z,78.44
2023-03-01T03:09:04.122Z,78.41
2023-03-01T03:11:06.701Z,79.64
2023-03-01T03:14:14.213Z,79.88
2023-03-01T03:17:50.580Z,79.82
2023-03-01T03:21:06.850Z,81.15
2023-03-01T03:27:23.537Z,79.95
2023-03-01T03:34:34.560Z,79.50
2023-03-01T03:37:36.838Z,78.96
2023-03-01T03:40:31.507Z,79.43
2023-03-01T03:43:21.698Z,78.80
2023-03-01T03:46:07.514Z,77.80
2023-03-01T03:53:02.794Z,77.90
2023-03-01T03:56:34.303Z,78.25
2023-03-01T04:07:37.332Z,79.74
2023-03-01T04:10:38.017Z,80.49
2023-03-01T04:14:31.220Z,80.16
2023-03-01T04:17:23.916Z,81.83
2023-03-01T04:20:43.796Z,82.00
2023-03-01T04:23:56.198Z,80.55
2023-03-01T04:26:41.999Z,80.77
2023-03-01T04:29:34.972Z,79.50
2023-03-01T04:32:48.488Z,79.02
2023-03-01T04:36:06.585Z,78.93
2023-03-01T04:38:45.011Z,79.27
2023-03-01T04:42:09.712Z,78.68
2023-03-01T04:45:22.960Z,78.43
2023-03-01T05:01:39.303Z,78.48
2023-03-01T05:04:29.886Z,78.20
2023-03-01T05:07:10.561Z,78.50
2023-03-01T05:09:48.088Z,79.41
2023-03-01T05:12:21.203Z,79.88
2023-03-01T05:14:52.847Z,81.21
2023-03-01T05:17:33.743Z,80.64
2023-03-01T05:20:10.076Z,81.42
2023-03-01T05:22:48.164Z,81.78
2023-03-01T05:25:22.668Z,81.99
2023-03-01T05:28:04.541Z,82.25
2023-03-01T05:30:35.740Z,82.44
2023-03-01T05:33:17.603Z,81.72
2023-03-01T05:35:50.235Z,82.03
2023-03-01T05:38:28.411Z,80.82
2023-03-01T05:44:23.068Z,81.70
2023-03-01T06:04:13.465Z,82.79
2023-03-01T06:06:46.048Z,83.57
2023-03-01T06:09:15.962Z,83.41
2023-03-01T06:12:02.490Z,81.71
2023-03-01T06:14:51.568Z,81.34
2023-03-01T06:17:21.799Z,80.80
2023-03-01T06:19:51.855Z,79.88
2023-03-01T06:22:24.436Z,79.51
2023-03-01T06:24:54.444Z,79.10
2023-03-01T06:27:25.369Z,78.51
2023-03-01T06:29:55.128Z,77.99
2023-03-01T06:39:34.148Z,78.36
2023-03-01T06:41:39.390Z,79.22
2023-03-01T07:06:13.601Z,70.94
2023-03-01T07:08:43.287Z,73.83
2023-03-01T07:11:19.550Z,74.81
2023-03-01T07:13:49.367Z,75.63
2023-03-01T07:16:23.889Z,76.34
2023-03-01T07:47:52.208Z,84.57
2023-03-01T07:50:42.284Z,85.52
2023-03-01T07:53:14.831Z,85.85
2023-03-01T07:55:44.802Z,86.54
2023-03-01T07:58:14.605Z,86.13
2023-03-01T08:00:44.232Z,86.40
2023-03-01T08:05:44.874Z,86.29
2023-03-01T08:08:14.484Z,86.04
2023-03-01T08:10:44.630Z,86.01
2023-03-01T10:08:09.873Z,70.90
2023-03-01T10:10:42.348Z,70.75
2023-03-01T10:13:20.897Z,70.20
2023-03-01T10:15:58.945Z,69.87
2023-03-01T10:18:31.310Z,69.88
2023-03-01T10:21:02.837Z,70.09
2023-03-01T10:23:35.564Z,69.24
2023-03-01T10:26:16.027Z,69.48
2023-03-01T10:29:03.402Z,69.71
2023-03-01T10:31:43.987Z,68.38
2023-03-01T10:34:19.750Z,68.14
2023-03-01T10:36:52.698Z,66.32
2023-03-01T10:39:24.672Z,67.21
2023-03-01T10:42:02.883Z,67.80
2023-03-01T10:44:48.093Z,67.68
2023-03-01T10:47:24.435Z,67.71
2023-03-01T10:49:59.881Z,67.79
2023-03-01T10:52:33.168Z,67.41
2023-03-01T10:55:07.522Z,66.62
2023-03-01T10:57:42.807Z,66.70
2023-03-01T11:00:26.114Z,66.01
2023-03-01T11:03:18.204Z,65.83
2023-03-01T11:05:56.944Z,66.25
2023-03-01T11:08:44.052Z,66.13
2023-03-01T11:11:35.135Z,65.18
2023-03-01T11:14:24.951Z,65.00
2023-03-01T11:17:03.769Z,63.49
2023-03-01T11:19:36.906Z,62.79
2023-03-01T11:22:11.399Z,64.00
2023-03-01T11:24:44.791Z,64.16
2023-03-01T11:27:23.944Z,63.27
2023-03-01T11:29:58.220Z,62.63
2023-03-01T11:32:31.340Z,63.60
2023-03-01T11:35:11.887Z,62.55
2023-03-01T11:37:47.528Z,62.70
2023-03-01T11:40:20.968Z,61.52
2023-03-01T11:43:00.120Z,62.06
2023-03-01T11:45:35.700Z,62.07
2023-03-01T11:48:49.318Z,61.51
2023-03-01T11:51:29.299Z,63.24
2023-03-01T11:54:08.738Z,63.49
2023-03-01T11:56:42.102Z,64.38
2023-03-01T11:59:43.128Z,63.97
2023-03-01T12:02:54.016Z,63.30
2023-03-01T12:05:59.406Z,62.98
2023-03-01T12:08:37.588Z,61.74
2023-03-01T12:11:17.807Z,62.20
2023-03-01T12:14:12.580Z,60.98
2023-03-01T12:17:02.972Z,60.77
2023-03-01T12:19:55.405Z,59.81
2023-03-01T12:22:33.825Z,61.21
2023-03-01T12:25:29.453Z,60.35
2023-03-01T12:28:17.091Z,59.60
2023-03-01T12:31:04.192Z,60.12
2023-03-01T12:33:45.050Z,60.03
2023-03-01T12:36:34.481Z,59.77
2023-03-01T12:39:20.460Z,61.05
2023-03-01T12:42:06.223Z,59.33
2023-03-01T12:45:01.102Z,58.74
2023-03-01T12:47:45.948Z,57.98
2023-03-01T12:50:20.834Z,59.20
2023-03-01T12:52:54.923Z,57.26
2023-03-01T12:55:32.857Z,57.86
2023-03-01T12:58:19.516Z,56.70
2023-03-01T13:01:03.859Z,56.03
2023-03-01T13:03:41.965Z,55.90
2023-03-01T13:06:18.688Z,56.32
2023-03-01T13:08:57.365Z,56.68
2023-03-01T13:11:27.626Z,53.93
2023-03-01T13:14:37.133Z,54.70
2023-03-01T13:17:35.553Z,54.91
2023-03-01T13:20:05.262Z,54.26
2023-03-01T13:22:49.844Z,53.76
2023-03-01T13:25:27.584Z,54.09
2023-03-01T13:28:31.457Z,52.54
2023-03-01T13:31:01.644Z,52.30
2023-03-01T13:33:49.701Z,52.94
2023-03-01T13:36:50.665Z,52.36
2023-03-01T13:39:33.478Z,56.58
2023-03-01T13:42:03.959Z,52.88
2023-03-01T13:44:37.372Z,53.11
2023-03-01T13:47:20.170Z,52.37
2023-03-01T13:49:58.817Z,53.06
2023-03-01T13:52:40.538Z,52.27
2023-03-01T13:55:22.005Z,52.26
2023-03-01T13:57:54.911Z,53.42
2023-03-01T14:00:33.980Z,52.50
2023-03-01T14:03:06.543Z,51.72
2023-03-01T14:05:39.699Z,52.14
2023-03-01T14:08:23.148Z,51.80
2023-03-01T14:11:09.237Z,52.17
2023-03-01T14:13:55.774Z,52.36
2023-03-01T14:16:39.044Z,52.69
2023-03-01T14:19:32.685Z,52.15
2023-03-01T14:22:16.691Z,51.96
2023-03-01T14:24:51.430Z,51.00
2023-03-01T14:27:21.559Z,50.87
2023-03-01T14:29:59.301Z,52.25
2023-03-01T14:32:30.810Z,52.32
2023-03-01T14:35:01.935Z,51.05
2023-03-01T14:37:36.426Z,50.78
2023-03-01T14:40:08.570Z,49.85
2023-03-01T14:42:39.799Z,49.90
2023-03-01T14:45:16.435Z,49.67
2023-03-01T14:47:48.493Z,48.04
2023-03-01T14:50:26.010Z,48.78
2023-03-01T14:53:01.845Z,49.24
2023-03-01T14:55:35.876Z,49.67
2023-03-01T14:58:07.589Z,49.64
2023-03-01T15:00:38.976Z,50.28
2023-03-01T15:03:14.766Z,50.44
2023-03-01T15:05:46.796Z,50.42
2023-03-01T15:08:22.810Z,49.79
2023-03-01T15:11:06.772Z,48.51
2023-03-01T15:13:41.201Z,49.76
2023-03-01T15:16:14.422Z,50.72
2023-03-01T15:18:54.023Z,50.23
2023-03-01T15:21:28.211Z,51.74
2023-03-01T15:24:12.679Z,50.63
2023-03-01T15:26:46.767Z,50.56
2023-03-01T15:29:20.981Z,49.99
2023-03-01T15:31:59.283Z,49.79
2023-03-01T15:34:31.459Z,49.43
2023-03-01T15:37:02.725Z,50.55
2023-03-01T15:39:44.635Z,49.71
2023-03-01T15:42:17.749Z,50.34
2023-03-01T15:44:47.468Z,50.52
2023-03-01T15:47:30.887Z,50.70
2023-03-01T15:50:03.487Z,51.17
2023-03-01T15:52:40.611Z,51.06
2023-03-01T15:55:21.078Z,51.11
2023-03-01T15:57:51.768Z,50.91
2023-03-01T16:00:22.682Z,51.34
2023-03-01T16:02:52.362Z,51.17
2023-03-01T16:05:24.820Z,51.07
2023-03-01T16:07:55.401Z,51.77
2023-03-01T16:10:28.449Z,51.94
2023-03-01T16:12:58.201Z,52.42
2023-03-01T16:15:32.648Z,52.45
2023-03-01T16:18:03.013Z,52.83
2023-03-01T16:20:33.999Z,52.69
2023-03-01T16:23:05.293Z,52.80
2023-03-01T16:25:39.047Z,52.60
2023-03-01T16:28:10.278Z,52.96
2023-03-01T16:30:41.107Z,53.41
2023-03-01T16:33:31.487Z,53.61
2023-03-01T16:36:03.097Z,54.10
2023-03-01T16:38:35.772Z,53.69
2023-03-01T16:41:08.894Z,53.48
2023-03-01T16:43:38.709Z,53.45
2023-03-01T16:46:14.393Z,53.67
2023-03-01T16:48:44.400Z,53.60
2023-03-01T16:51:14.528Z,53.99
2023-03-01T16:53:46.965Z,53.63
2023-03-01T16:56:21.259Z,53.70
2023-03-01T16:58:51.321Z,53.61
2023-03-01T17:01:24.503Z,53.41
2023-03-01T17:03:54.357Z,53.25
2023-03-01T17:06:26.060Z,53.63
2023-03-01T17:08:55.926Z,53.50
2023-03-01T17:11:28.709Z,53.02
2023-03-01T17:13:58.551Z,53.21
2023-03-01T17:16:28.464Z,53.38
2023-03-01T17:18:58.263Z,53.86
2023-03-01T17:21:28.560Z,53.93
2023-03-01T17:24:00.468Z,54.03
2023-03-01T17:26:33.285Z,54.37
2023-03-01T17:29:03.910Z,54.36
2023-03-01T17:31:34.522Z,54.38
2023-03-01T17:34:04.700Z,54.66
2023-03-01T17:36:41.853Z,54.75
2023-03-01T17:39:11.558Z,54.82
2023-03-01T17:41:44.101Z,54.62
2023-03-01T17:44:13.859Z,54.65
2023-03-01T17:46:43.740Z,54.69
2023-03-01T17:49:13.732Z,55.40
2023-03-01T17:51:44.573Z,55.45
2023-03-01T17:54:14.384Z,55.86
2023-03-01T17:56:46.808Z,56.19
2023-03-01T17:59:17.809Z,57.81
2023-03-01T18:01:47.839Z,58.26
2023-03-01T18:04:18.596Z,58.96
2023-03-01T18:06:48.481Z,59.39
2023-03-01T18:09:18.205Z,58.91
2023-03-01T18:11:50.761Z,58.71
2023-03-01T18:14:20.649Z,59.05
2023-03-01T18:16:50.521Z,58.61
2023-03-01T18:19:21.339Z,58.89
2023-03-01T18:21:51.208Z,58.97
2023-03-01T18:24:21.002Z,58.71
2023-03-01T18:26:53.547Z,58.86
2023-03-01T18:29:24.713Z,59.25
2023-03-01T18:35:02.783Z,59.73
2023-03-01T18:37:44.891Z,59.84
2023-03-01T18:40:15.667Z,60.18
2023-03-01T18:42:51.237Z,60.55
2023-03-01T18:45:28.017Z,60.54
2023-03-01T18:47:58.000Z,62.15
2023-03-01T18:50:27.799Z,62.30
2023-03-01T18:52:58.017Z,62.63
2023-03-01T18:55:27.893Z,62.40
2023-03-01T18:58:00.252Z,62.59
2023-03-01T19:00:30.023Z,63.14
2023-03-01T19:03:01.190Z,63.35
2023-03-01T19:05:31.054Z,63.74
2023-03-01T19:08:00.794Z,64.05
2023-03-01T19:10:31.858Z,64.13
2023-03-01T19:13:04.355Z,64.60
2023-03-01T19:15:33.985Z,65.35
2023-03-01T19:18:04.585Z,65.20
2023-03-01T19:20:34.269Z,65.76
2023-03-01T19:23:03.943Z,65.67
2023-03-01T19:25:33.614Z,65.48
2023-03-01T19:28:06.034Z,65.65
2023-03-01T19:30:35.685Z,65.85
2023-03-01T19:33:05.608Z,65.89
2023-03-01T19:35:37.647Z,66.04
2023-03-01T19:38:07.374Z,66.04
2023-03-01T19:40:39.148Z,66.29
2023-03-01T19:43:11.718Z,67.00
2023-03-01T19:45:41.367Z,67.16
2023-03-01T19:48:10.973Z,67.30
2023-03-01T19:50:40.662Z,67.66
2023-03-01T19:54:16.292Z,67.93
2023-03-01T19:57:17.187Z,68.14
2023-03-01T19:59:56.226Z,67.89
2023-03-01T20:02:37.675Z,67.73
2023-03-01T20:05:23.269Z,66.85
2023-03-01T20:08:20.825Z,66.71
2023-03-01T20:10:59.677Z,66.80
2023-03-01T20:13:32.295Z,66.84
2023-03-01T20:16:11.799Z,67.01
2023-03-01T20:18:42.054Z,67.35
2023-03-01T20:21:23.435Z,67.76
2023-03-01T20:24:28.510Z,67.22
